sensor_id;sensor_type;location;lat;lon;timestamp;P1;durP1;ratioP1;P2;durP2;ratioP2
18146;SDS011;9199;48.832;9.182;2023-07-16T00:01:04;4.37;;;2.23;;
18146;SDS011;9199;48.832;9.182;2023-07-16T00:03:31;4.90;;;2.03;;
18146;SDS011;9199;48.832;9.182;2023-07-16T00:05:59;4.45;;;2.13;;
18146;SDS011;9199;48.832;9.182;2023-07-16T00:08:26;3.70;;;1.80;;
18146;SDS011;9199;48.832;9.182;2023-07-16T00:10:52;4.85;;;2.10;;
18146;SDS011;9199;48.832;9.182;2023-07-16T00:13:19;3.30;;;1.80;;
18146;SDS011;9199;48.832;9.182;2023-07-16T00:15:46;3.97;;;1.70;;
18146;SDS011;9199;48.832;9.182;2023-07-16T00:18:13;4.95;;;1.65;;
18146;SDS011;9199;48.832;9.182;2023-07-16T00:20:39;4.40;;;1.70;;
18146;SDS011;9199;48.832;9.182;2023-07-16T00:23:07;3.50;;;1.50;;
18146;SDS011;9199;48.832;9.182;2023-07-16T00:25:34;3.87;;;1.50;;
18146;SDS011;9199;48.832;9.182;2023-07-16T00:28:01;3.30;;;1.38;;
18146;SDS011;9199;48.832;9.182;2023-07-16T00:30:28;3.78;;;1.60;;
18146;SDS011;9199;48.832;9.182;2023-07-16T00:32:55;4.18;;;1.45;;
18146;SDS011;9199;48.832;9.182;2023-07-16T00:35:22;4.03;;;1.42;;
18146;SDS011;9199;48.832;9.182;2023-07-16T00:37:48;3.73;;;1.40;;
18146;SDS011;9199;48.832;9.182;2023-07-16T00:40:16;3.67;;;1.30;;
18146;SDS011;9199;48.832;9.182;2023-07-16T00:42:43;3.05;;;1.40;;
18146;SDS011;9199;48.832;9.182;2023-07-16T00:45:11;3.53;;;1.40;;
18146;SDS011;9199;48.832;9.182;2023-07-16T00:47:40;3.90;;;1.20;;
18146;SDS011;9199;48.832;9.182;2023-07-16T00:50:08;5.20;;;1.37;;
18146;SDS011;9199;48.832;9.182;2023-07-16T00:52:36;3.05;;;1.40;;
18146;SDS011;9199;48.832;9.182;2023-07-16T00:55:03;3.67;;;1.60;;
18146;SDS011;9199;48.832;9.182;2023-07-16T00:57:32;4.65;;;1.23;;
18146;SDS011;9199;48.832;9.182;2023-07-16T00:59:59;2.65;;;1.20;;
18146;SDS011;9199;48.832;9.182;2023-07-16T01:02:26;3.43;;;1.03;;
18146;SDS011;9199;48.832;9.182;2023-07-16T01:04:53;2.92;;;1.20;;
18146;SDS011;9199;48.832;9.182;2023-07-16T01:07:20;2.25;;;1.13;;
18146;SDS011;9199;48.832;9.182;2023-07-16T01:09:50;3.78;;;1.30;;
18146;SDS011;9199;48.832;9.182;2023-07-16T01:12:17;2.47;;;1.10;;
18146;SDS011;9199;48.832;9.182;2023-07-16T01:14:49;3.80;;;1.10;;
18146;SDS011;9199;48.832;9.182;2023-07-16T01:17:17;3.63;;;1.20;;
18146;SDS011;9199;48.832;9.182;2023-07-16T01:19:44;2.17;;;0.98;;
18146;SDS011;9199;48.832;9.182;2023-07-16T01:25:01;3.15;;;1.20;;
18146;SDS011;9199;48.832;9.182;2023-07-16T01:27:44;2.87;;;1.00;;
18146;SDS011;9199;48.832;9.182;2023-07-16T01:30:24;2.92;;;1.20;;
18146;SDS011;9199;48.832;9.182;2023-07-16T01:32:53;2.35;;;1.00;;
18146;SDS011;9199;48.832;9.182;2023-07-16T01:35:21;3.55;;;1.30;;
18146;SDS011;9199;48.832;9.182;2023-07-16T01:37:48;4.05;;;1.10;;
18146;SDS011;9199;48.832;9.182;2023-07-16T01:40:15;3.93;;;1.20;;
18146;SDS011;9199;48.832;9.182;2023-07-16T01:42:42;3.38;;;1.30;;
18146;SDS011;9199;48.832;9.182;2023-07-16T01:45:09;2.75;;;1.17;;
18146;SDS011;9199;48.832;9.182;2023-07-16T01:47:39;3.83;;;1.30;;
18146;SDS011;9199;48.832;9.182;2023-07-16T01:50:12;2.65;;;1.20;;
18146;SDS011;9199;48.832;9.182;2023-07-16T01:52:39;3.27;;;1.20;;
18146;SDS011;9199;48.832;9.182;2023-07-16T01:55:06;2.88;;;1.20;;
18146;SDS011;9199;48.832;9.182;2023-07-16T01:57:33;3.25;;;1.30;;
18146;SDS011;9199;48.832;9.182;2023-07-16T02:00:00;3.15;;;1.10;;
18146;SDS011;9199;48.832;9.182;2023-07-16T02:02:27;3.20;;;1.00;;
18146;SDS011;9199;48.832;9.182;2023-07-16T02:04:54;3.00;;;1.20;;
18146;SDS011;9199;48.832;9.182;2023-07-16T02:07:21;3.42;;;1.10;;
18146;SDS011;9199;48.832;9.182;2023-07-16T02:09:49;3.35;;;1.30;;
18146;SDS011;9199;48.832;9.182;2023-07-16T02:12:16;3.53;;;1.10;;
18146;SDS011;9199;48.832;9.182;2023-07-16T02:14:42;2.80;;;1.17;;
18146;SDS011;9199;48.832;9.182;2023-07-16T02:17:09;3.78;;;1.20;;
18146;SDS011;9199;48.832;9.182;2023-07-16T02:19:36;3.42;;;1.00;;
18146;SDS011;9199;48.832;9.182;2023-07-16T02:22:04;3.47;;;1.13;;
18146;SDS011;9199;48.832;9.182;2023-07-16T02:24:34;3.42;;;1.85;;
18146;SDS011;9199;48.832;9.182;2023-07-16T02:27:01;6.97;;;1.43;;
18146;SDS011;9199;48.832;9.182;2023-07-16T02:29:28;2.85;;;1.13;;
18146;SDS011;9199;48.832;9.182;2023-07-16T02:31:55;2.97;;;1.10;;
18146;SDS011;9199;48.832;9.182;2023-07-16T02:34:21;4.63;;;1.23;;
18146;SDS011;9199;48.832;9.182;2023-07-16T02:36:48;3.38;;;1.15;;
18146;SDS011;9199;48.832;9.182;2023-07-16T02:39:16;3.20;;;1.30;;
18146;SDS011;9199;48.832;9.182;2023-07-16T02:41:43;3.60;;;1.20;;
18146;SDS011;9199;48.832;9.182;2023-07-16T02:44:09;5.10;;;1.30;;
18146;SDS011;9199;48.832;9.182;2023-07-16T02:46:36;3.50;;;1.30;;
18146;SDS011;9199;48.832;9.182;2023-07-16T02:49:03;3.92;;;1.25;;
18146;SDS011;9199;48.832;9.182;2023-07-16T02:51:30;4.73;;;1.33;;
18146;SDS011;9199;48.832;9.182;2023-07-16T02:53:56;3.40;;;1.20;;
18146;SDS011;9199;48.832;9.182;2023-07-16T02:56:24;3.83;;;1.30;;
18146;SDS011;9199;48.832;9.182;2023-07-16T02:58:51;3.55;;;1.20;;
18146;SDS011;9199;48.832;9.182;2023-07-16T03:01:18;4.07;;;1.45;;
18146;SDS011;9199;48.832;9.182;2023-07-16T03:03:45;3.13;;;1.20;;
18146;SDS011;9199;48.832;9.182;2023-07-16T03:06:11;5.25;;;1.38;;
18146;SDS011;9199;48.832;9.182;2023-07-16T03:08:38;3.13;;;1.40;;
18146;SDS011;9199;48.832;9.182;2023-07-16T03:11:05;5.20;;;1.58;;
18146;SDS011;9199;48.832;9.182;2023-07-16T03:13:33;3.75;;;1.30;;
18146;SDS011;9199;48.832;9.182;2023-07-16T03:16:00;4.97;;;1.70;;
18146;SDS011;9199;48.832;9.182;2023-07-16T03:18:27;3.25;;;1.48;;
18146;SDS011;9199;48.832;9.182;2023-07-16T03:20:55;3.83;;;1.40;;
18146;SDS011;9199;48.832;9.182;2023-07-16T03:23:22;3.40;;;1.13;;
18146;SDS011;9199;48.832;9.182;2023-07-16T03:25:49;3.00;;;1.15;;
18146;SDS011;9199;48.832;9.182;2023-07-16T03:28:16;4.83;;;1.40;;
18146;SDS011;9199;48.832;9.182;2023-07-16T03:30:46;4.03;;;1.40;;
18146;SDS011;9199;48.832;9.182;2023-07-16T03:33:12;3.53;;;1.20;;
18146;SDS011;9199;48.832;9.182;2023-07-16T03:35:41;3.40;;;1.25;;
18146;SDS011;9199;48.832;9.182;2023-07-16T03:38:08;4.03;;;1.38;;
18146;SDS011;9199;48.832;9.182;2023-07-16T03:40:35;4.67;;;1.40;;
18146;SDS011;9199;48.832;9.182;2023-07-16T03:43:02;3.63;;;1.33;;
18146;SDS011;9199;48.832;9.182;2023-07-16T03:45:29;3.72;;;1.40;;
18146;SDS011;9199;48.832;9.182;2023-07-16T03:47:57;4.10;;;1.30;;
18146;SDS011;9199;48.832;9.182;2023-07-16T03:50:24;3.50;;;1.20;;
18146;SDS011;9199;48.832;9.182;2023-07-16T03:52:50;3.60;;;1.40;;
18146;SDS011;9199;48.832;9.182;2023-07-16T03:55:18;3.42;;;1.27;;
18146;SDS011;9199;48.832;9.182;2023-07-16T03:57:44;3.95;;;1.45;;
18146;SDS011;9199;48.832;9.182;2023-07-16T04:00:11;5.35;;;1.48;;
18146;SDS011;9199;48.832;9.182;2023-07-16T04:02:38;4.35;;;1.40;;
18146;SDS011;9199;48.832;9.182;2023-07-16T04:05:07;4.70;;;1.70;;
18146;SDS011;9199;48.832;9.182;2023-07-16T04:07:34;3.60;;;1.30;;
18146;SDS011;9199;48.832;9.182;2023-07-16T04:10:01;3.78;;;1.40;;
18146;SDS011;9199;48.832;9.182;2023-07-16T04:12:28;4.00;;;1.42;;
18146;SDS011;9199;48.832;9.182;2023-07-16T04:14:55;3.50;;;1.30;;
18146;SDS011;9199;48.832;9.182;2023-07-16T04:17:23;4.53;;;1.23;;
18146;SDS011;9199;48.832;9.182;2023-07-16T04:19:50;4.32;;;1.40;;
18146;SDS011;9199;48.832;9.182;2023-07-16T04:22:19;5.07;;;1.50;;
18146;SDS011;9199;48.832;9.182;2023-07-16T04:24:45;5.43;;;1.40;;
18146;SDS011;9199;48.832;9.182;2023-07-16T04:27:12;8.38;;;2.28;;
18146;SDS011;9199;48.832;9.182;2023-07-16T04:29:39;3.33;;;1.50;;
18146;SDS011;9199;48.832;9.182;2023-07-16T04:32:06;3.33;;;1.20;;
18146;SDS011;9199;48.832;9.182;2023-07-16T04:34:33;3.03;;;1.27;;
18146;SDS011;9199;48.832;9.182;2023-07-16T04:36:59;3.38;;;1.30;;
18146;SDS011;9199;48.832;9.182;2023-07-16T04:39:27;5.43;;;1.45;;
18146;SDS011;9199;48.832;9.182;2023-07-16T04:41:54;3.53;;;1.17;;
18146;SDS011;9199;48.832;9.182;2023-07-16T04:44:21;5.22;;;1.52;;
18146;SDS011;9199;48.832;9.182;2023-07-16T04:46:47;4.88;;;1.50;;
18146;SDS011;9199;48.832;9.182;2023-07-16T04:49:14;7.10;;;1.60;;
18146;SDS011;9199;48.832;9.182;2023-07-16T04:51:41;4.22;;;1.33;;
18146;SDS011;9199;48.832;9.182;2023-07-16T04:54:07;3.63;;;1.40;;
18146;SDS011;9199;48.832;9.182;2023-07-16T04:56:36;5.13;;;1.77;;
18146;SDS011;9199;48.832;9.182;2023-07-16T04:59:03;4.70;;;1.80;;
18146;SDS011;9199;48.832;9.182;2023-07-16T05:01:29;3.90;;;1.40;;
18146;SDS011;9199;48.832;9.182;2023-07-16T05:03:56;5.65;;;1.60;;
18146;SDS011;9199;48.832;9.182;2023-07-16T05:06:23;4.90;;;1.40;;
18146;SDS011;9199;48.832;9.182;2023-07-16T05:08:49;4.47;;;1.65;;
18146;SDS011;9199;48.832;9.182;2023-07-16T05:11:16;4.22;;;1.33;;
18146;SDS011;9199;48.832;9.182;2023-07-16T05:13:44;4.15;;;1.48;;
18146;SDS011;9199;48.832;9.182;2023-07-16T05:16:11;4.75;;;1.63;;
18146;SDS011;9199;48.832;9.182;2023-07-16T05:18:38;5.53;;;1.50;;
18146;SDS011;9199;48.832;9.182;2023-07-16T05:21:04;4.97;;;1.33;;
18146;SDS011;9199;48.832;9.182;2023-07-16T05:23:31;4.32;;;1.40;;
18146;SDS011;9199;48.832;9.182;2023-07-16T05:25:58;4.68;;;1.50;;
18146;SDS011;9199;48.832;9.182;2023-07-16T05:28:24;3.95;;;1.27;;
18146;SDS011;9199;48.832;9.182;2023-07-16T05:30:58;5.80;;;1.47;;
18146;SDS011;9199;48.832;9.182;2023-07-16T05:33:25;6.65;;;1.52;;
18146;SDS011;9199;48.832;9.182;2023-07-16T05:35:52;4.03;;;1.60;;
18146;SDS011;9199;48.832;9.182;2023-07-16T05:38:19;6.95;;;1.70;;
18146;SDS011;9199;48.832;9.182;2023-07-16T05:40:45;5.57;;;1.65;;
18146;SDS011;9199;48.832;9.182;2023-07-16T05:43:12;7.03;;;1.50;;
18146;SDS011;9199;48.832;9.182;2023-07-16T05:45:39;6.25;;;1.60;;
18146;SDS011;9199;48.832;9.182;2023-07-16T05:48:07;3.97;;;1.40;;
18146;SDS011;9199;48.832;9.182;2023-07-16T05:50:34;5.07;;;1.35;;
18146;SDS011;9199;48.832;9.182;2023-07-16T05:53:01;6.05;;;1.40;;
18146;SDS011;9199;48.832;9.182;2023-07-16T05:55:28;4.43;;;1.50;;
18146;SDS011;9199;48.832;9.182;2023-07-16T05:57:54;4.57;;;1.60;;
18146;SDS011;9199;48.832;9.182;2023-07-16T06:00:21;8.10;;;1.50;;
18146;SDS011;9199;48.832;9.182;2023-07-16T06:02:48;4.47;;;1.60;;
18146;SDS011;9199;48.832;9.182;2023-07-16T06:05:16;5.55;;;1.60;;
18146;SDS011;9199;48.832;9.182;2023-07-16T06:07:43;5.10;;;1.30;;
18146;SDS011;9199;48.832;9.182;2023-07-16T06:10:10;6.65;;;1.60;;
18146;SDS011;9199;48.832;9.182;2023-07-16T06:12:37;4.78;;;1.40;;
18146;SDS011;9199;48.832;9.182;2023-07-16T06:15:04;7.32;;;1.50;;
18146;SDS011;9199;48.832;9.182;2023-07-16T06:17:31;5.45;;;1.48;;
18146;SDS011;9199;48.832;9.182;2023-07-16T06:19:58;4.83;;;1.50;;
18146;SDS011;9199;48.832;9.182;2023-07-16T06:22:26;5.28;;;1.52;;
18146;SDS011;9199;48.832;9.182;2023-07-16T06:24:53;6.82;;;1.70;;
18146;SDS011;9199;48.832;9.182;2023-07-16T06:27:20;5.35;;;1.90;;
18146;SDS011;9199;48.832;9.182;2023-07-16T06:29:47;5.07;;;1.50;;
18146;SDS011;9199;48.832;9.182;2023-07-16T06:32:14;3.97;;;1.30;;
18146;SDS011;9199;48.832;9.182;2023-07-16T06:34:40;4.22;;;1.40;;
18146;SDS011;9199;48.832;9.182;2023-07-16T06:37:07;3.40;;;1.40;;
18146;SDS011;9199;48.832;9.182;2023-07-16T06:39:35;4.82;;;1.30;;
18146;SDS011;9199;48.832;9.182;2023-07-16T06:42:02;4.80;;;1.40;;
18146;SDS011;9199;48.832;9.182;2023-07-16T06:44:29;5.53;;;1.40;;
18146;SDS011;9199;48.832;9.182;2023-07-16T06:46:55;6.10;;;1.38;;
18146;SDS011;9199;48.832;9.182;2023-07-16T06:49:22;4.30;;;1.50;;
18146;SDS011;9199;48.832;9.182;2023-07-16T06:51:49;5.45;;;1.40;;
18146;SDS011;9199;48.832;9.182;2023-07-16T06:54:16;8.27;;;1.42;;
18146;SDS011;9199;48.832;9.182;2023-07-16T06:56:44;5.10;;;1.50;;
18146;SDS011;9199;48.832;9.182;2023-07-16T06:59:11;5.07;;;1.45;;
18146;SDS011;9199;48.832;9.182;2023-07-16T07:01:37;7.45;;;1.42;;
18146;SDS011;9199;48.832;9.182;2023-07-16T07:04:04;6.55;;;1.48;;
18146;SDS011;9199;48.832;9.182;2023-07-16T07:06:31;4.40;;;1.30;;
18146;SDS011;9199;48.832;9.182;2023-07-16T07:08:58;3.90;;;1.30;;
18146;SDS011;9199;48.832;9.182;2023-07-16T07:11:24;5.95;;;1.55;;
18146;SDS011;9199;48.832;9.182;2023-07-16T07:13:52;5.35;;;1.40;;
18146;SDS011;9199;48.832;9.182;2023-07-16T07:16:21;4.82;;;1.52;;
18146;SDS011;9199;48.832;9.182;2023-07-16T07:18:48;4.80;;;1.50;;
18146;SDS011;9199;48.832;9.182;2023-07-16T07:21:15;5.23;;;1.10;;
18146;SDS011;9199;48.832;9.182;2023-07-16T07:23:42;6.10;;;1.40;;
18146;SDS011;9199;48.832;9.182;2023-07-16T07:26:09;5.50;;;1.33;;
18146;SDS011;9199;48.832;9.182;2023-07-16T07:28:35;5.15;;;1.48;;
18146;SDS011;9199;48.832;9.182;2023-07-16T07:31:03;4.10;;;1.30;;
18146;SDS011;9199;48.832;9.182;2023-07-16T07:33:30;6.57;;;1.67;;
18146;SDS011;9199;48.832;9.182;2023-07-16T07:35:57;5.00;;;1.17;;
18146;SDS011;9199;48.832;9.182;2023-07-16T07:38:24;4.28;;;1.40;;
18146;SDS011;9199;48.832;9.182;2023-07-16T07:40:51;5.57;;;1.30;;
18146;SDS011;9199;48.832;9.182;2023-07-16T07:43:18;3.55;;;1.27;;
18146;SDS011;9199;48.832;9.182;2023-07-16T07:45:45;4.67;;;1.30;;
18146;SDS011;9199;48.832;9.182;2023-07-16T07:48:13;6.68;;;1.58;;
18146;SDS011;9199;48.832;9.182;2023-07-16T07:50:39;6.43;;;1.40;;
18146;SDS011;9199;48.832;9.182;2023-07-16T07:53:06;8.15;;;2.20;;
18146;SDS011;9199;48.832;9.182;2023-07-16T07:55:33;6.30;;;1.60;;
18146;SDS011;9199;48.832;9.182;2023-07-16T07:58:00;6.90;;;1.50;;
18146;SDS011;9199;48.832;9.182;2023-07-16T08:00:27;7.03;;;1.40;;
18146;SDS011;9199;48.832;9.182;2023-07-16T08:02:53;6.80;;;1.60;;
18146;SDS011;9199;48.832;9.182;2023-07-16T08:05:22;5.68;;;1.85;;
18146;SDS011;9199;48.832;9.182;2023-07-16T08:07:48;7.05;;;1.40;;
18146;SDS011;9199;48.832;9.182;2023-07-16T08:10:16;7.77;;;1.83;;
18146;SDS011;9199;48.832;9.182;2023-07-16T08:12:43;5.30;;;1.50;;
18146;SDS011;9199;48.832;9.182;2023-07-16T08:15:10;4.13;;;1.60;;
18146;SDS011;9199;48.832;9.182;2023-07-16T08:17:39;6.05;;;1.42;;
18146;SDS011;9199;48.832;9.182;2023-07-16T08:20:06;7.55;;;1.52;;
18146;SDS011;9199;48.832;9.182;2023-07-16T08:22:35;5.17;;;1.50;;
18146;SDS011;9199;48.832;9.182;2023-07-16T08:25:02;6.07;;;1.45;;
18146;SDS011;9199;48.832;9.182;2023-07-16T08:27:29;6.05;;;1.80;;
18146;SDS011;9199;48.832;9.182;2023-07-16T08:29:56;6.13;;;1.70;;
18146;SDS011;9199;48.832;9.182;2023-07-16T08:32:23;4.07;;;1.20;;
18146;SDS011;9199;48.832;9.182;2023-07-16T08:34:50;4.83;;;1.50;;
18146;SDS011;9199;48.832;9.182;2023-07-16T08:37:17;4.82;;;1.30;;
18146;SDS011;9199;48.832;9.182;2023-07-16T08:39:45;4.70;;;1.55;;
18146;SDS011;9199;48.832;9.182;2023-07-16T08:42:11;4.50;;;1.50;;
18146;SDS011;9199;48.832;9.182;2023-07-16T08:44:39;5.55;;;1.70;;
18146;SDS011;9199;48.832;9.182;2023-07-16T08:47:06;4.47;;;1.57;;
18146;SDS011;9199;48.832;9.182;2023-07-16T08:49:33;4.03;;;1.30;;
18146;SDS011;9199;48.832;9.182;2023-07-16T08:52:00;7.20;;;1.52;;
18146;SDS011;9199;48.832;9.182;2023-07-16T08:54:28;4.60;;;1.40;;
18146;SDS011;9199;48.832;9.182;2023-07-16T08:56:56;5.25;;;1.23;;
18146;SDS011;9199;48.832;9.182;2023-07-16T08:59:24;4.47;;;1.40;;
18146;SDS011;9199;48.832;9.182;2023-07-16T09:01:52;3.88;;;1.30;;
18146;SDS011;9199;48.832;9.182;2023-07-16T09:04:19;4.35;;;1.30;;
18146;SDS011;9199;48.832;9.182;2023-07-16T09:06:46;5.85;;;1.85;;
18146;SDS011;9199;48.832;9.182;2023-07-16T09:09:18;5.60;;;1.40;;
18146;SDS011;9199;48.832;9.182;2023-07-16T09:11:46;4.53;;;1.30;;
18146;SDS011;9199;48.832;9.182;2023-07-16T09:14:16;4.07;;;1.33;;
18146;SDS011;9199;48.832;9.182;2023-07-16T09:16:46;4.22;;;1.40;;
18146;SDS011;9199;48.832;9.182;2023-07-16T09:19:14;3.35;;;1.10;;
18146;SDS011;9199;48.832;9.182;2023-07-16T09:21:45;4.97;;;1.48;;
18146;SDS011;9199;48.832;9.182;2023-07-16T09:24:12;4.60;;;1.43;;
18146;SDS011;9199;48.832;9.182;2023-07-16T09:26:39;5.63;;;1.67;;
18146;SDS011;9199;48.832;9.182;2023-07-16T09:29:15;5.22;;;1.65;;
18146;SDS011;9199;48.832;9.182;2023-07-16T09:31:51;3.67;;;1.20;;
18146;SDS011;9199;48.832;9.182;2023-07-16T09:34:18;4.85;;;1.40;;
18146;SDS011;9199;48.832;9.182;2023-07-16T09:36:46;4.27;;;1.30;;
18146;SDS011;9199;48.832;9.182;2023-07-16T09:39:14;6.25;;;1.42;;
18146;SDS011;9199;48.832;9.182;2023-07-16T09:41:42;3.10;;;1.40;;
18146;SDS011;9199;48.832;9.182;2023-07-16T09:44:10;3.28;;;1.30;;
18146;SDS011;9199;48.832;9.182;2023-07-16T09:46:39;3.15;;;1.27;;
18146;SDS011;9199;48.832;9.182;2023-07-16T09:49:06;5.77;;;1.40;;
18146;SDS011;9199;48.832;9.182;2023-07-16T09:51:33;3.53;;;1.30;;
18146;SDS011;9199;48.832;9.182;2023-07-16T09:54:02;3.70;;;1.50;;
18146;SDS011;9199;48.832;9.182;2023-07-16T09:56:30;5.32;;;1.52;;
18146;SDS011;9199;48.832;9.182;2023-07-16T09:59:01;6.40;;;2.00;;
18146;SDS011;9199;48.832;9.182;2023-07-16T10:01:31;5.10;;;1.47;;
18146;SDS011;9199;48.832;9.182;2023-07-16T10:04:10;4.82;;;1.50;;
18146;SDS011;9199;48.832;9.182;2023-07-16T10:06:47;5.78;;;1.63;;
18146;SDS011;9199;48.832;9.182;2023-07-16T10:12:07;7.95;;;1.92;;
18146;SDS011;9199;48.832;9.182;2023-07-16T10:14:41;4.53;;;1.53;;
18146;SDS011;9199;48.832;9.182;2023-07-16T10:17:12;5.80;;;1.60;;
18146;SDS011;9199;48.832;9.182;2023-07-16T10:19:48;7.13;;;2.10;;
18146;SDS011;9199;48.832;9.182;2023-07-16T10:22:17;5.93;;;2.10;;
18146;SDS011;9199;48.832;9.182;2023-07-16T10:24:44;5.57;;;1.70;;
18146;SDS011;9199;48.832;9.182;2023-07-16T10:27:25;5.07;;;1.70;;
18146;SDS011;9199;48.832;9.182;2023-07-16T10:29:53;5.22;;;1.70;;
18146;SDS011;9199;48.832;9.182;2023-07-16T10:32:20;5.60;;;1.90;;
18146;SDS011;9199;48.832;9.182;2023-07-16T10:34:48;6.32;;;1.65;;
18146;SDS011;9199;48.832;9.182;2023-07-16T10:37:15;3.95;;;1.70;;
18146;SDS011;9199;48.832;9.182;2023-07-16T10:39:45;4.97;;;1.70;;
18146;SDS011;9199;48.832;9.182;2023-07-16T10:42:13;6.10;;;1.60;;
18146;SDS011;9199;48.832;9.182;2023-07-16T10:44:41;4.30;;;1.30;;
18146;SDS011;9199;48.832;9.182;2023-07-16T10:47:08;4.60;;;1.70;;
18146;SDS011;9199;48.832;9.182;2023-07-16T10:49:35;4.72;;;1.55;;
18146;SDS011;9199;48.832;9.182;2023-07-16T10:52:04;4.97;;;1.50;;
18146;SDS011;9199;48.832;9.182;2023-07-16T10:54:31;5.85;;;1.58;;
18146;SDS011;9199;48.832;9.182;2023-07-16T10:56:58;4.82;;;1.67;;
18146;SDS011;9199;48.832;9.182;2023-07-16T10:59:24;5.10;;;1.50;;
18146;SDS011;9199;48.832;9.182;2023-07-16T11:01:51;4.57;;;1.25;;
18146;SDS011;9199;48.832;9.182;2023-07-16T11:04:18;5.13;;;1.70;;
18146;SDS011;9199;48.832;9.182;2023-07-16T11:06:45;5.32;;;1.58;;
18146;SDS011;9199;48.832;9.182;2023-07-16T11:09:13;3.90;;;1.58;;
18146;SDS011;9199;48.832;9.182;2023-07-16T11:11:39;5.38;;;1.55;;
18146;SDS011;9199;48.832;9.182;2023-07-16T11:14:06;5.45;;;1.90;;
18146;SDS011;9199;48.832;9.182;2023-07-16T11:16:34;4.30;;;1.60;;
18146;SDS011;9199;48.832;9.182;2023-07-16T11:19:01;4.63;;;1.58;;
18146;SDS011;9199;48.832;9.182;2023-07-16T11:21:30;4.57;;;1.90;;
18146;SDS011;9199;48.832;9.182;2023-07-16T11:24:07;4.93;;;2.10;;
18146;SDS011;9199;48.832;9.182;2023-07-16T11:26:36;5.68;;;1.77;;
18146;SDS011;9199;48.832;9.182;2023-07-16T11:29:12;4.03;;;1.57;;
18146;SDS011;9199;48.832;9.182;2023-07-16T11:31:39;3.72;;;1.60;;
18146;SDS011;9199;48.832;9.182;2023-07-16T11:34:06;5.45;;;1.70;;
18146;SDS011;9199;48.832;9.182;2023-07-16T11:36:33;5.63;;;1.73;;
18146;SDS011;9199;48.832;9.182;2023-07-16T11:39:02;6.50;;;1.65;;
18146;SDS011;9199;48.832;9.182;2023-07-16T11:41:29;4.70;;;1.60;;
18146;SDS011;9199;48.832;9.182;2023-07-16T11:43:59;4.95;;;1.75;;
18146;SDS011;9199;48.832;9.182;2023-07-16T11:46:30;4.35;;;1.65;;
18146;SDS011;9199;48.832;9.182;2023-07-16T11:48:58;6.50;;;1.90;;
18146;SDS011;9199;48.832;9.182;2023-07-16T11:51:24;3.60;;;1.60;;
18146;SDS011;9199;48.832;9.182;2023-07-16T11:53:51;5.83;;;1.60;;
18146;SDS011;9199;48.832;9.182;2023-07-16T11:56:18;3.60;;;1.80;;
18146;SDS011;9199;48.832;9.182;2023-07-16T11:58:45;4.80;;;1.77;;
18146;SDS011;9199;48.832;9.182;2023-07-16T12:01:13;6.05;;;1.80;;
18146;SDS011;9199;48.832;9.182;2023-07-16T12:03:40;3.97;;;1.60;;
18146;SDS011;9199;48.832;9.182;2023-07-16T12:06:07;4.97;;;1.90;;
18146;SDS011;9199;48.832;9.182;2023-07-16T12:08:34;6.35;;;1.88;;
18146;SDS011;9199;48.832;9.182;2023-07-16T12:11:01;4.32;;;1.70;;
18146;SDS011;9199;48.832;9.182;2023-07-16T12:13:28;5.55;;;1.60;;
18146;SDS011;9199;48.832;9.182;2023-07-16T12:15:54;4.03;;;1.50;;
18146;SDS011;9199;48.832;9.182;2023-07-16T12:18:22;4.60;;;1.50;;
18146;SDS011;9199;48.832;9.182;2023-07-16T12:20:49;4.15;;;1.45;;
18146;SDS011;9199;48.832;9.182;2023-07-16T12:23:16;4.63;;;1.55;;
18146;SDS011;9199;48.832;9.182;2023-07-16T12:25:42;4.63;;;1.58;;
18146;SDS011;9199;48.832;9.182;2023-07-16T12:28:09;4.32;;;1.85;;
18146;SDS011;9199;48.832;9.182;2023-07-16T12:30:37;4.70;;;1.60;;
18146;SDS011;9199;48.832;9.182;2023-07-16T12:33:03;6.38;;;1.77;;
18146;SDS011;9199;48.832;9.182;2023-07-16T12:35:31;4.65;;;1.98;;
18146;SDS011;9199;48.832;9.182;2023-07-16T12:37:58;4.10;;;1.60;;
18146;SDS011;9199;48.832;9.182;2023-07-16T12:40:25;4.00;;;1.70;;
18146;SDS011;9199;48.832;9.182;2023-07-16T12:42:54;5.50;;;1.77;;
18146;SDS011;9199;48.832;9.182;2023-07-16T12:45:20;4.75;;;1.85;;
18146;SDS011;9199;48.832;9.182;2023-07-16T12:47:47;7.53;;;2.00;;
18146;SDS011;9199;48.832;9.182;2023-07-16T12:50:15;4.35;;;1.70;;
18146;SDS011;9199;48.832;9.182;2023-07-16T12:52:43;3.83;;;1.88;;
18146;SDS011;9199;48.832;9.182;2023-07-16T12:55:10;3.87;;;1.50;;
18146;SDS011;9199;48.832;9.182;2023-07-16T12:57:38;3.97;;;1.63;;
18146;SDS011;9199;48.832;9.182;2023-07-16T13:00:05;4.32;;;2.00;;
18146;SDS011;9199;48.832;9.182;2023-07-16T13:02:34;4.82;;;1.70;;
18146;SDS011;9199;48.832;9.182;2023-07-16T13:05:01;5.28;;;1.73;;
18146;SDS011;9199;48.832;9.182;2023-07-16T13:07:29;5.07;;;1.80;;
18146;SDS011;9199;48.832;9.182;2023-07-16T13:09:58;3.30;;;1.60;;
18146;SDS011;9199;48.832;9.182;2023-07-16T13:12:24;4.30;;;1.88;;
18146;SDS011;9199;48.832;9.182;2023-07-16T13:14:51;4.53;;;1.85;;
18146;SDS011;9199;48.832;9.182;2023-07-16T13:17:18;4.93;;;1.98;;
18146;SDS011;9199;48.832;9.182;2023-07-16T13:19:45;4.97;;;1.90;;
18146;SDS011;9199;48.832;9.182;2023-07-16T13:22:12;4.50;;;1.80;;
18146;SDS011;9199;48.832;9.182;2023-07-16T13:24:39;5.38;;;1.95;;
18146;SDS011;9199;48.832;9.182;2023-07-16T13:27:09;5.03;;;1.80;;
18146;SDS011;9199;48.832;9.182;2023-07-16T13:29:45;4.60;;;1.80;;
18146;SDS011;9199;48.832;9.182;2023-07-16T13:32:11;4.30;;;1.80;;
18146;SDS011;9199;48.832;9.182;2023-07-16T13:34:38;5.88;;;1.98;;
18146;SDS011;9199;48.832;9.182;2023-07-16T13:37:05;4.68;;;2.25;;
18146;SDS011;9199;48.832;9.182;2023-07-16T13:39:32;4.97;;;1.83;;
18146;SDS011;9199;48.832;9.182;2023-07-16T13:41:58;4.20;;;2.00;;
18146;SDS011;9199;48.832;9.182;2023-07-16T13:44:26;4.00;;;2.30;;
18146;SDS011;9199;48.832;9.182;2023-07-16T13:46:53;4.15;;;2.13;;
18146;SDS011;9199;48.832;9.182;2023-07-16T13:49:20;6.28;;;2.10;;
18146;SDS011;9199;48.832;9.182;2023-07-16T13:51:47;6.05;;;2.40;;
18146;SDS011;9199;48.832;9.182;2023-07-16T13:54:13;5.38;;;2.13;;
18146;SDS011;9199;48.832;9.182;2023-07-16T13:56:40;3.53;;;1.93;;
18146;SDS011;9199;48.832;9.182;2023-07-16T13:59:07;3.90;;;1.92;;
18146;SDS011;9199;48.832;9.182;2023-07-16T14:01:37;4.43;;;2.20;;
18146;SDS011;9199;48.832;9.182;2023-07-16T14:04:05;5.82;;;2.00;;
18146;SDS011;9199;48.832;9.182;2023-07-16T14:06:32;5.43;;;2.20;;
18146;SDS011;9199;48.832;9.182;2023-07-16T14:08:59;5.27;;;2.23;;
18146;SDS011;9199;48.832;9.182;2023-07-16T14:11:25;4.55;;;2.35;;
18146;SDS011;9199;48.832;9.182;2023-07-16T14:13:52;3.70;;;2.15;;
18146;SDS011;9199;48.832;9.182;2023-07-16T14:16:19;5.75;;;1.95;;
18146;SDS011;9199;48.832;9.182;2023-07-16T14:18:50;4.20;;;2.15;;
18146;SDS011;9199;48.832;9.182;2023-07-16T14:21:17;5.17;;;2.10;;
18146;SDS011;9199;48.832;9.182;2023-07-16T14:23:45;4.50;;;2.10;;
18146;SDS011;9199;48.832;9.182;2023-07-16T14:26:12;4.88;;;2.05;;
18146;SDS011;9199;48.832;9.182;2023-07-16T14:28:38;4.38;;;2.10;;
18146;SDS011;9199;48.832;9.182;2023-07-16T14:31:05;5.25;;;2.10;;
18146;SDS011;9199;48.832;9.182;2023-07-16T14:33:32;3.73;;;2.00;;
18146;SDS011;9199;48.832;9.182;2023-07-16T14:36:00;4.30;;;2.08;;
18146;SDS011;9199;48.832;9.182;2023-07-16T14:38:28;4.63;;;2.10;;
18146;SDS011;9199;48.832;9.182;2023-07-16T14:40:54;4.70;;;2.17;;
18146;SDS011;9199;48.832;9.182;2023-07-16T14:43:21;4.45;;;2.10;;
18146;SDS011;9199;48.832;9.182;2023-07-16T14:45:48;5.63;;;2.30;;
18146;SDS011;9199;48.832;9.182;2023-07-16T14:48:15;4.45;;;2.03;;
18146;SDS011;9199;48.832;9.182;2023-07-16T14:50:41;5.22;;;2.17;;
18146;SDS011;9199;48.832;9.182;2023-07-16T14:53:09;4.65;;;2.20;;
18146;SDS011;9199;48.832;9.182;2023-07-16T14:55:37;4.00;;;2.00;;
18146;SDS011;9199;48.832;9.182;2023-07-16T14:58:04;4.40;;;1.80;;
18146;SDS011;9199;48.832;9.182;2023-07-16T15:00:31;5.25;;;2.10;;
18146;SDS011;9199;48.832;9.182;2023-07-16T15:02:58;4.90;;;1.90;;
18146;SDS011;9199;48.832;9.182;2023-07-16T15:05:25;4.30;;;1.80;;
18146;SDS011;9199;48.832;9.182;2023-07-16T15:07:52;5.43;;;1.85;;